Berkeley, CA

9:24 AM PST on January 27, 2015 (GMT -0800)
Elmwood | Change Station
CLOSE
Current Station
Personal Weather Station
Location: Berkeley, CA
Elevation: 253 ft
Nearby Weather Stations

Elev 253 ft 37.86 °N, 122.25 °W | Updated 27 seconds ago

Mostly Cloudy
Mostly Cloudy
58.8 °F
Feels Like 58.8 °F
N
0.0
Wind Variable Wind from West

Today
High -- | Low -- °F
--% Chance of Precip.
Yesterday
High -- | Low -- °F
Precip. -- in
7:17 AM 5:26 PM
First Quarter, 56% visible
Pressure 30.16 in
Visibility 10.0 miles
Clouds Few 7000 ft
Overcast 10000 ft
Dew Point 44 °F
Humidity 58%
Rainfall 0.00 in
Snow Depth Not available.
UV 0 out of 12
Pollen 6.80 out of 12
Air Quality Not available.
Flu Activity Not available.
METAR KOAK 271653Z 15004KT 10SM FEW070 OVC100 14/08 A3016 RMK AO2 SLP213 T01440083

More Conditions Fewer Conditions

Pressure 30.16 in
Visibility 10.0 miles
Clouds Few 7000 ft
Overcast 10000 ft
Dew Point 44 °F
Humidity 58%
Rainfall 0.00 in
Snow Depth Not available.
UV 0 out of 12
Pollen 6.80 out of 12
Air Quality Not available.
Flu Activity Not available.
METAR KOAK 271653Z 15004KT 10SM FEW070 OVC100 14/08 A3016 RMK AO2 SLP213 T01440083

More Conditions Fewer Conditions

10-Day Weather Forecast

Almanac

Astronomy

Jan. 27, 2015 Rise Set
Actual Time
Civil Twilight
Nautical Twilight
Astronomical Twilight
Moon
Length of Visible Light
Length of Day
Tomorrow will be .
, % of the Moon is Illuminated

Today's Extremes

State Highs State Lows

Community

WunderPhotos

Upload Photos

1,790,731 photos uploaded!

WunderBlogs® & News

Nearby

Air Quality

  Air Quality AQ Index Pollutant
Not available.

Snow Depth

Station Depth Elevation

Earthquake Activity

City Distance Mag. Time & Date
Minimum magnitude displayed is 2.5.

Coastal Water Temperatures

Place Temperature

Nearby Weather Stations